Time;durP1;ratioP1;P1;durP2;ratioP2;P2;SDS_P1;SDS_P2;PMS_P1;PMS_P2;Temp;Humidity;BMP_temperature;BMP_pressure;BME280_temperature;BME280_humidity;BME280_pressure;Samples;Min_cycle;Max_cycle;Signal;HPM_P1;HPM_P2
2022/12/29 00:01:45;;;;;;;0.82;0.65;;;14.00;56.30;;;;;;5022219;28;20076;-47
2022/12/29 00:04:14;;;;;;;0.95;0.57;;;14.00;56.40;;;;;;5021242;28;20080;-44
2022/12/29 00:06:41;;;;;;;0.50;0.40;;;14.00;56.30;;;;;;5021640;28;20049;-44
2022/12/29 00:09:09;;;;;;;0.57;0.43;;;14.00;56.40;;;;;;5018282;28;20528;-44
2022/12/29 00:11:36;;;;;;;1.13;0.40;;;14.10;56.50;;;;;;5022606;28;20057;-44
2022/12/29 00:16:49;;;;;;;1.17;0.40;;;14.10;56.40;;;;;;5027204;28;20052;-45
2022/12/29 00:35:57;;;;;;;3.20;0.47;;;14.20;56.50;;;;;;5026954;28;20060;-43
2022/12/29 00:44:05;;;;;;;2.47;0.30;;;14.20;56.50;;;;;;5027412;28;21420;-47
2022/12/29 00:46:33;;;;;;;0.70;0.40;;;14.20;56.50;;;;;;5016676;28;20060;-43
2022/12/29 00:51:48;;;;;;;0.43;0.28;;;14.20;56.60;;;;;;5026883;28;20057;-44
2022/12/29 00:54:16;;;;;;;0.20;0.20;;;14.20;56.50;;;;;;5019748;28;20057;-47
2022/12/29 00:56:43;;;;;;;0.63;0.30;;;14.20;56.50;;;;;;5019761;28;20401;-47
2022/12/29 00:59:12;;;;;;;1.58;0.40;;;14.20;56.50;;;;;;5020578;28;20057;-48
2022/12/29 01:01:40;;;;;;;0.43;0.40;;;14.30;56.60;;;;;;5021347;28;20057;-45
2022/12/29 01:04:09;;;;;;;1.52;0.30;;;14.30;56.50;;;;;;5021315;28;20409;-44
2022/12/29 01:06:37;;;;;;;2.00;0.30;;;14.20;56.50;;;;;;5018449;28;20049;-44
2022/12/29 01:11:50;;;;;;;0.65;0.50;;;14.30;56.50;;;;;;5022609;28;20060;-43
2022/12/29 01:14:18;;;;;;;0.75;0.35;;;14.30;56.40;;;;;;5019902;28;20057;-48
2022/12/29 01:16:47;;;;;;;0.40;0.22;;;14.20;56.40;;;;;;5021017;28;20056;-51
2022/12/29 01:19:17;;;;;;;0.40;0.30;;;14.20;56.30;;;;;;5019395;28;20053;-45
2022/12/29 01:21:44;;;;;;;0.93;0.30;;;14.30;56.30;;;;;;5020851;28;20080;-46
2022/12/29 01:24:11;;;;;;;0.70;0.20;;;14.20;56.30;;;;;;5019788;28;20054;-50
2022/12/29 01:26:39;;;;;;;0.20;0.20;;;14.20;56.10;;;;;;5019239;28;20061;-45
2022/12/29 01:29:06;;;;;;;0.22;0.20;;;14.20;56.20;;;;;;5020424;28;20054;-45
2022/12/29 01:31:33;;;;;;;0.32;0.20;;;14.20;56.20;;;;;;5020791;28;20053;-46
2022/12/29 01:34:01;;;;;;;0.93;0.22;;;14.20;56.10;;;;;;5018643;28;20076;-44
2022/12/29 01:36:29;;;;;;;0.25;0.25;;;14.20;56.00;;;;;;5017490;28;20068;-45
2022/12/29 01:38:57;;;;;;;0.65;0.25;;;14.20;56.00;;;;;;5019226;28;20060;-43
2022/12/29 01:41:24;;;;;;;0.22;0.20;;;14.20;55.90;;;;;;5021162;28;20053;-45
2022/12/29 01:43:54;;;;;;;0.93;0.22;;;14.20;55.90;;;;;;5018099;28;20053;-50
2022/12/29 01:46:25;;;;;;;0.52;0.22;;;14.20;55.70;;;;;;5017105;28;20060;-43
2022/12/29 01:48:56;;;;;;;0.28;0.28;;;14.20;55.70;;;;;;5017683;28;20065;-44
2022/12/29 01:51:25;;;;;;;1.45;0.30;;;14.30;55.70;;;;;;5018705;28;20053;-46
2022/12/29 01:53:56;;;;;;;0.52;0.20;;;14.20;55.50;;;;;;5018732;28;20064;-45
2022/12/29 01:56:24;;;;;;;0.10;0.10;;;14.20;55.50;;;;;;5018156;28;20405;-47
2022/12/29 01:59:03;;;;;;;0.22;0.20;;;14.20;55.40;;;;;;5019928;28;20060;-45
2022/12/29 02:01:30;;;;;;;0.52;0.20;;;14.30;55.30;;;;;;5016961;28;20049;-44
2022/12/29 02:03:57;;;;;;;2.05;0.30;;;14.30;55.40;;;;;;5020773;28;20049;-46
2022/12/29 02:06:30;;;;;;;1.60;0.38;;;14.30;55.30;;;;;;5015821;28;20045;-47
2022/12/29 02:08:59;;;;;;;1.13;0.20;;;14.30;55.40;;;;;;5017791;28;20529;-45
2022/12/29 02:11:28;;;;;;;0.40;0.32;;;14.30;55.30;;;;;;5019858;28;20057;-44
2022/12/29 02:13:56;;;;;;;0.55;0.40;;;14.30;55.30;;;;;;5020406;28;20045;-46
2022/12/29 02:16:41;;;;;;;1.40;0.28;;;14.30;55.30;;;;;;5017222;28;20049;-48
2022/12/29 02:19:33;;;;;;;1.60;0.30;;;14.30;55.10;;;;;;5020264;28;20548;-46
2022/12/29 02:22:13;;;;;;;0.20;0.20;;;14.30;55.10;;;;;;5019440;28;20049;-44
2022/12/29 02:25:18;;;;;;;1.15;0.40;;;14.30;55.20;;;;;;5017193;28;20046;-44
2022/12/29 02:27:54;;;;;;;0.40;0.30;;;14.30;55.20;;;;;;5020058;28;20053;-48
2022/12/29 02:30:44;;;;;;;0.60;0.50;;;14.30;55.20;;;;;;5018853;28;21061;-46
2022/12/29 02:33:35;;;;;;;0.82;0.30;;;14.30;55.30;;;;;;5017211;28;20050;-49
2022/12/29 02:36:10;;;;;;;0.75;0.30;;;14.40;55.40;;;;;;5021129;28;20050;-46
2022/12/29 02:38:51;;;;;;;0.68;0.30;;;14.40;55.50;;;;;;5017163;28;20049;-46
2022/12/29 02:41:23;;;;;;;3.08;0.60;;;14.40;55.50;;;;;;5020893;28;20049;-45
2022/12/29 02:43:57;;;;;;;0.93;0.40;;;14.40;55.60;;;;;;5024307;28;20050;-48
2022/12/29 02:46:34;;;;;;;0.50;0.20;;;14.40;55.70;;;;;;5023493;28;21737;-49
2022/12/29 02:49:07;;;;;;;1.33;0.45;;;14.40;55.70;;;;;;5024483;28;20053;-47
2022/12/29 02:51:40;;;;;;;2.25;0.50;;;14.40;55.70;;;;;;5020196;28;20497;-48
2022/12/29 02:56:53;;;;;;;0.22;0.22;;;14.50;55.80;;;;;;5028934;28;20072;-45
2022/12/29 02:59:21;;;;;;;2.95;0.50;;;14.50;55.80;;;;;;5022858;28;20049;-46
2022/12/29 03:02:18;;;;;;;0.82;0.40;;;14.50;55.90;;;;;;5021856;28;20050;-46
2022/12/29 03:04:57;;;;;;;0.52;0.30;;;14.50;55.90;;;;;;5022484;28;20076;-44
2022/12/29 03:07:33;;;;;;;1.17;0.40;;;14.50;56.00;;;;;;5022461;28;20076;-45
2022/12/29 03:10:10;;;;;;;0.55;0.40;;;14.50;56.10;;;;;;5019719;28;20453;-48
2022/12/29 03:18:25;;;;;;;2.20;0.52;;;14.50;56.30;;;;;;5029061;28;20060;-47
2022/12/29 03:20:55;;;;;;;0.65;0.30;;;14.50;56.20;;;;;;5023234;28;20509;-47
2022/12/29 03:23:24;;;;;;;0.88;0.30;;;14.50;56.20;;;;;;5018916;28;20068;-47
2022/12/29 03:25:56;;;;;;;0.85;0.50;;;14.50;56.20;;;;;;5020452;28;20401;-48
2022/12/29 03:28:26;;;;;;;0.40;0.30;;;14.50;56.30;;;;;;5023266;28;20406;-45
2022/12/29 03:30:54;;;;;;;1.15;0.38;;;14.50;56.20;;;;;;5021760;28;20478;-48
2022/12/29 03:33:25;;;;;;;0.32;0.32;;;14.50;56.20;;;;;;5020903;28;20496;-49
2022/12/29 03:35:58;;;;;;;1.42;0.50;;;14.50;56.20;;;;;;5020354;28;20049;-48
2022/12/29 03:38:34;;;;;;;1.33;0.50;;;14.50;56.20;;;;;;5020205;28;20053;-46
2022/12/29 03:41:07;;;;;;;0.80;0.40;;;14.50;56.30;;;;;;5022041;28;20057;-44
2022/12/29 03:43:35;;;;;;;1.35;0.40;;;14.50;56.40;;;;;;5020868;28;20049;-42
2022/12/29 03:46:02;;;;;;;0.85;0.50;;;14.50;56.30;;;;;;5023571;28;20061;-47
2022/12/29 03:48:32;;;;;;;1.52;0.50;;;14.50;56.40;;;;;;5021286;28;20513;-48
2022/12/29 03:51:00;;;;;;;0.68;0.30;;;14.50;56.40;;;;;;5019455;28;20524;-46
2022/12/29 03:53:27;;;;;;;1.52;0.40;;;14.50;56.50;;;;;;5021396;28;20057;-46
2022/12/29 03:55:54;;;;;;;1.35;0.55;;;14.50;56.40;;;;;;5020241;28;20052;-45
2022/12/29 03:58:21;;;;;;;1.10;0.40;;;14.50;56.40;;;;;;5021620;28;20060;-44
2022/12/29 04:00:49;;;;;;;0.57;0.43;;;14.50;56.40;;;;;;5021025;28;20405;-47
2022/12/29 04:03:16;;;;;;;2.55;0.50;;;14.50;56.40;;;;;;5023305;28;20060;-48
2022/12/29 04:05:44;;;;;;;2.30;0.40;;;14.60;56.40;;;;;;5022643;28;20417;-42
2022/12/29 04:08:11;;;;;;;0.90;0.35;;;14.50;56.30;;;;;;5019867;28;20421;-43
2022/12/29 04:10:39;;;;;;;0.40;0.30;;;14.50;56.30;;;;;;5021463;28;20060;-46
2022/12/29 04:13:06;;;;;;;0.82;0.40;;;14.60;56.30;;;;;;5022459;28;20060;-44
2022/12/29 04:15:33;;;;;;;1.90;0.35;;;14.60;56.20;;;;;;5021319;28;20050;-43
2022/12/29 04:18:00;;;;;;;0.70;0.28;;;14.50;56.10;;;;;;5022118;28;20064;-44
2022/12/29 04:23:14;;;;;;;0.73;0.25;;;14.50;56.10;;;;;;5020397;28;20057;-41
2022/12/29 04:25:41;;;;;;;0.60;0.30;;;14.50;56.10;;;;;;5018671;28;20049;-42
2022/12/29 04:28:08;;;;;;;1.20;0.40;;;14.50;56.00;;;;;;5021080;28;20064;-47
2022/12/29 04:30:36;;;;;;;1.60;0.30;;;14.50;56.00;;;;;;5018042;28;20072;-43
2022/12/29 04:33:04;;;;;;;0.80;0.22;;;14.50;56.00;;;;;;5018179;28;20053;-50
2022/12/29 04:35:31;;;;;;;0.15;0.10;;;14.50;55.90;;;;;;5017972;28;20049;-47
2022/12/29 04:37:59;;;;;;;0.45;0.30;;;14.50;55.90;;;;;;5022164;28;20080;-45
2022/12/29 04:40:27;;;;;;;0.52;0.30;;;14.50;55.90;;;;;;5022429;28;20072;-48
2022/12/29 04:42:55;;;;;;;0.47;0.30;;;14.50;55.80;;;;;;5023967;28;20056;-45
2022/12/29 04:45:22;;;;;;;1.70;0.47;;;14.50;55.90;;;;;;5023571;28;20046;-47
2022/12/29 04:47:49;;;;;;;2.28;0.40;;;14.50;55.70;;;;;;5023895;28;20062;-46
2022/12/29 04:50:17;;;;;;;0.60;0.32;;;14.50;55.60;;;;;;5020844;28;21239;-45
2022/12/29 04:52:44;;;;;;;0.55;0.30;;;14.50;55.60;;;;;;5021042;28;20508;-45
2022/12/29 04:55:11;;;;;;;1.27;0.30;;;14.50;55.60;;;;;;5022406;28;20062;-46
2022/12/29 04:57:40;;;;;;;0.50;0.45;;;14.50;55.50;;;;;;5024547;28;20060;-43
2022/12/29 05:00:09;;;;;;;0.65;0.50;;;14.50;55.50;;;;;;5022903;28;20411;-42
2022/12/29 05:02:37;;;;;;;0.30;0.20;;;14.50;55.50;;;;;;5022984;28;20117;-45
2022/12/29 05:05:05;;;;;;;0.95;0.50;;;14.50;55.50;;;;;;5022844;28;20049;-45
2022/12/29 05:07:33;;;;;;;1.05;0.52;;;14.50;55.40;;;;;;5021575;28;20516;-48
2022/12/29 05:10:00;;;;;;;2.53;0.30;;;14.50;55.40;;;;;;5020378;28;20057;-47
2022/12/29 05:12:31;;;;;;;1.20;0.28;;;14.50;55.30;;;;;;5022197;28;20080;-43
2022/12/29 05:15:00;;;;;;;0.75;0.30;;;14.50;55.40;;;;;;5022098;28;20509;-44
2022/12/29 05:17:27;;;;;;;0.57;0.40;;;14.50;55.50;;;;;;5018875;28;20060;-45
2022/12/29 05:19:55;;;;;;;0.35;0.30;;;14.50;55.70;;;;;;5016842;28;20061;-46
2022/12/29 05:22:22;;;;;;;0.68;0.28;;;14.50;55.90;;;;;;5020075;28;20428;-42
2022/12/29 05:24:49;;;;;;;0.93;0.40;;;14.50;56.10;;;;;;5021595;28;20053;-44
2022/12/29 05:27:17;;;;;;;0.68;0.20;;;14.50;56.20;;;;;;5022081;28;20049;-45
2022/12/29 05:29:44;;;;;;;1.20;0.40;;;14.50;56.40;;;;;;5021463;28;20394;-43
2022/12/29 05:32:12;;;;;;;3.33;1.08;;;14.50;56.50;;;;;;5022890;28;20072;-43
2022/12/29 05:34:40;;;;;;;2.38;0.30;;;14.50;56.60;;;;;;5023216;28;20060;-43
2022/12/29 05:37:07;;;;;;;0.80;0.30;;;14.50;56.70;;;;;;5022887;28;20050;-44
2022/12/29 05:39:34;;;;;;;0.90;0.50;;;14.50;56.70;;;;;;5022092;28;20501;-43
2022/12/29 05:42:01;;;;;;;0.93;0.40;;;14.50;56.80;;;;;;5022904;28;20065;-45
2022/12/29 05:44:29;;;;;;;0.80;0.40;;;14.40;56.80;;;;;;5022257;28;20057;-43
2022/12/29 05:46:56;;;;;;;0.90;0.20;;;14.50;56.90;;;;;;5022086;28;20062;-44
2022/12/29 05:49:24;;;;;;;1.00;0.38;;;14.50;56.90;;;;;;5019794;28;20061;-44
2022/12/29 05:51:52;;;;;;;1.27;0.40;;;14.40;56.90;;;;;;5022690;28;20049;-41
2022/12/29 05:54:19;;;;;;;1.85;0.35;;;14.50;57.00;;;;;;5024412;28;20422;-45
2022/12/29 05:56:46;;;;;;;1.00;0.40;;;14.40;56.90;;;;;;5020759;28;20053;-44
2022/12/29 05:59:13;;;;;;;1.30;0.57;;;14.40;57.10;;;;;;5022656;28;20508;-44
2022/12/29 06:01:41;;;;;;;2.25;1.17;;;14.40;57.00;;;;;;5022125;28;20064;-46
2022/12/29 06:04:08;;;;;;;4.43;1.60;;;14.40;57.00;;;;;;5022626;28;20069;-43
2022/12/29 06:06:36;;;;;;;1.73;0.90;;;14.40;57.00;;;;;;5022818;28;20247;-43
2022/12/29 06:09:04;;;;;;;0.77;0.35;;;14.40;57.00;;;;;;5020701;28;20053;-46
2022/12/29 06:11:31;;;;;;;1.08;0.60;;;14.40;57.00;;;;;;5021952;28;20057;-46
2022/12/29 06:13:58;;;;;;;0.77;0.65;;;14.50;57.10;;;;;;5023998;28;20049;-46
2022/12/29 06:16:25;;;;;;;6.35;0.95;;;14.50;57.10;;;;;;5026730;28;20386;-45
2022/12/29 06:18:53;;;;;;;0.88;0.50;;;14.50;57.10;;;;;;5029237;28;20425;-47
2022/12/29 06:21:20;;;;;;;1.75;0.70;;;14.50;57.00;;;;;;5027852;28;20045;-42
2022/12/29 06:23:49;;;;;;;1.30;0.60;;;14.50;57.10;;;;;;5025378;28;20057;-45
2022/12/29 06:26:16;;;;;;;0.55;0.35;;;14.40;57.10;;;;;;5026219;28;20501;-48
2022/12/29 06:28:43;;;;;;;0.40;0.40;;;14.50;57.10;;;;;;5028247;28;20064;-44
2022/12/29 06:31:11;;;;;;;2.50;0.70;;;14.50;57.30;;;;;;5029773;28;20056;-47
2022/12/29 06:33:38;;;;;;;1.65;0.40;;;14.50;57.30;;;;;;5029775;28;20057;-45
2022/12/29 06:36:07;;;;;;;0.52;0.30;;;14.50;57.40;;;;;;5026316;28;20064;-43
2022/12/29 06:38:35;;;;;;;1.17;0.63;;;14.50;57.50;;;;;;5026715;28;20055;-42
2022/12/29 06:41:04;;;;;;;0.73;0.50;;;14.50;57.50;;;;;;5027685;28;20057;-44
2022/12/29 06:43:34;;;;;;;1.67;0.47;;;14.50;57.60;;;;;;5027535;28;20064;-46
2022/12/29 06:46:01;;;;;;;1.23;0.50;;;14.50;57.70;;;;;;5028431;28;20060;-43
2022/12/29 06:48:30;;;;;;;1.35;0.70;;;14.50;57.70;;;;;;5028150;28;20061;-48
2022/12/29 06:50:57;;;;;;;0.63;0.40;;;14.40;57.70;;;;;;5028889;28;20053;-45
2022/12/29 06:53:25;;;;;;;1.45;0.60;;;14.40;57.80;;;;;;5027705;28;20421;-45
2022/12/29 06:55:53;;;;;;;1.70;0.70;;;14.50;57.90;;;;;;5026658;28;20516;-44
2022/12/29 06:58:22;;;;;;;0.95;0.50;;;14.40;57.90;;;;;;5027390;28;20061;-44
2022/12/29 07:00:49;;;;;;;0.30;0.25;;;14.40;57.90;;;;;;5026480;28;20049;-43
2022/12/29 07:03:16;;;;;;;1.15;0.50;;;14.40;58.00;;;;;;5025955;28;20054;-45
2022/12/29 07:05:43;;;;;;;2.65;0.30;;;14.40;58.10;;;;;;5028834;28;20520;-43
2022/12/29 07:08:11;;;;;;;0.82;0.60;;;14.40;58.20;;;;;;5027677;28;20062;-43
2022/12/29 07:10:38;;;;;;;1.48;0.60;;;14.40;58.40;;;;;;5027236;28;20096;-46
2022/12/29 07:13:07;;;;;;;0.65;0.35;;;14.40;58.30;;;;;;5025437;28;20057;-47
2022/12/29 07:15:37;;;;;;;0.75;0.50;;;14.40;58.30;;;;;;5028281;28;20374;-48
2022/12/29 07:18:04;;;;;;;1.02;0.38;;;14.40;58.30;;;;;;5025364;28;20064;-43
2022/12/29 07:20:32;;;;;;;0.55;0.32;;;14.30;58.40;;;;;;5022040;28;20401;-48
2022/12/29 07:23:00;;;;;;;1.63;0.47;;;14.30;58.50;;;;;;5012086;28;20060;-45
2022/12/29 07:25:27;;;;;;;4.85;1.00;;;14.30;58.70;;;;;;5010623;28;20061;-47
2022/12/29 07:27:54;;;;;;;0.80;0.40;;;14.30;58.70;;;;;;5007035;28;20056;-46
2022/12/29 07:30:22;;;;;;;1.70;0.30;;;14.30;58.70;;;;;;5009494;28;20548;-47
2022/12/29 07:32:50;;;;;;;1.40;0.40;;;14.30;58.80;;;;;;5012914;28;20053;-45
2022/12/29 07:35:20;;;;;;;0.22;0.22;;;14.20;58.70;;;;;;5008762;28;20405;-44
2022/12/29 07:37:51;;;;;;;0.95;0.43;;;14.20;58.70;;;;;;5012273;28;20068;-44
2022/12/29 07:40:18;;;;;;;1.80;0.60;;;14.20;58.60;;;;;;5005014;28;21636;-46
2022/12/29 07:42:45;;;;;;;0.80;0.30;;;14.20;58.60;;;;;;5006117;28;20056;-47
2022/12/29 07:45:12;;;;;;;0.60;0.20;;;14.20;58.60;;;;;;5005239;28;21646;-44
2022/12/29 07:47:40;;;;;;;0.35;0.10;;;14.20;58.60;;;;;;5003203;28;20054;-47
2022/12/29 07:50:09;;;;;;;0.73;0.50;;;14.20;58.40;;;;;;5008993;28;20061;-46
2022/12/29 07:52:36;;;;;;;2.58;1.35;;;14.10;58.30;;;;;;5008518;28;20049;-47
2022/12/29 07:55:03;;;;;;;8.25;4.03;;;14.10;58.10;;;;;;5005835;28;20494;-45
2022/12/29 07:57:30;;;;;;;19.42;8.73;;;14.10;58.00;;;;;;5012171;28;20462;-46
2022/12/29 07:59:58;;;;;;;50.75;28.05;;;14.00;57.90;;;;;;5011225;28;20410;-43
2022/12/29 08:02:26;;;;;;;25.90;14.73;;;14.00;57.70;;;;;;5005127;28;20053;-48
2022/12/29 08:04:53;;;;;;;60.30;40.17;;;14.00;57.60;;;;;;5001391;28;20053;-45
2022/12/29 08:07:21;;;;;;;12.85;9.80;;;14.00;57.50;;;;;;5007010;28;20053;-44
2022/12/29 08:09:49;;;;;;;6.93;6.22;;;14.00;57.30;;;;;;5002066;28;20061;-46
2022/12/29 08:12:16;;;;;;;4.63;3.60;;;13.90;57.30;;;;;;5005460;28;20064;-43
2022/12/29 08:14:43;;;;;;;6.55;3.53;;;13.90;57.20;;;;;;5005154;28;20354;-44
2022/12/29 08:17:10;;;;;;;5.88;3.58;;;13.90;57.20;;;;;;5004164;28;20053;-44
2022/12/29 08:19:38;;;;;;;9.55;3.13;;;13.90;57.10;;;;;;5010698;28;20049;-48
2022/12/29 08:22:05;;;;;;;5.30;2.50;;;13.90;57.00;;;;;;5004194;28;20053;-45
2022/12/29 08:24:34;;;;;;;10.45;2.10;;;13.90;57.00;;;;;;5003857;28;20053;-44
2022/12/29 08:27:01;;;;;;;2.22;1.30;;;13.90;57.00;;;;;;5004129;28;20049;-48
2022/12/29 08:29:29;;;;;;;8.48;1.10;;;13.90;57.00;;;;;;5005930;28;20437;-45
2022/12/29 08:31:56;;;;;;;1.67;0.63;;;13.90;56.80;;;;;;5005228;28;20053;-45
2022/12/29 08:34:23;;;;;;;8.68;1.48;;;13.90;56.70;;;;;;5009621;28;20049;-43
2022/12/29 08:36:51;;;;;;;2.13;0.70;;;13.90;56.60;;;;;;4999535;28;20056;-46
2022/12/29 08:39:19;;;;;;;4.40;1.15;;;13.90;56.70;;;;;;4999540;28;20045;-46
2022/12/29 08:41:48;;;;;;;1.45;0.70;;;13.90;56.70;;;;;;5004204;28;20053;-46
2022/12/29 08:44:16;;;;;;;2.55;0.68;;;13.90;56.60;;;;;;5007128;28;20501;-45
2022/12/29 08:46:44;;;;;;;1.63;0.40;;;13.90;56.50;;;;;;5000855;28;20049;-47
2022/12/29 08:49:12;;;;;;;2.65;0.85;;;13.90;56.50;;;;;;5007670;28;20068;-48
2022/12/29 08:51:40;;;;;;;2.65;0.82;;;13.90;56.40;;;;;;5004047;28;20064;-46
2022/12/29 08:54:07;;;;;;;3.60;0.90;;;13.90;56.40;;;;;;5003052;28;20054;-45
2022/12/29 08:56:35;;;;;;;2.60;0.90;;;13.90;56.40;;;;;;5005080;28;20057;-43
2022/12/29 08:59:04;;;;;;;3.20;0.75;;;13.90;56.30;;;;;;5006615;28;20053;-44
2022/12/29 09:01:31;;;;;;;1.40;0.60;;;13.90;56.20;;;;;;5006350;28;20049;-46
2022/12/29 09:03:58;;;;;;;1.08;0.40;;;13.90;56.20;;;;;;5003333;28;20049;-46
2022/12/29 09:06:25;;;;;;;2.55;0.63;;;13.90;56.20;;;;;;5003369;28;20065;-46
2022/12/29 09:08:55;;;;;;;2.25;0.85;;;13.90;56.20;;;;;;5004568;28;20056;-45
2022/12/29 09:11:24;;;;;;;2.58;0.68;;;13.90;56.20;;;;;;5004264;28;20060;-45
2022/12/29 09:13:52;;;;;;;2.45;0.60;;;13.90;56.10;;;;;;5002720;28;20124;-43
2022/12/29 09:16:22;;;;;;;3.38;0.68;;;14.00;56.10;;;;;;5009225;28;20485;-47
2022/12/29 09:18:50;;;;;;;5.85;1.10;;;14.00;56.00;;;;;;5005216;28;20053;-46
2022/12/29 09:21:17;;;;;;;4.07;0.50;;;14.00;55.90;;;;;;5003668;28;20398;-45
2022/12/29 09:23:44;;;;;;;2.45;0.60;;;14.00;55.80;;;;;;5004193;28;20429;-48
2022/12/29 09:26:11;;;;;;;4.55;0.85;;;14.00;55.80;;;;;;5006293;28;20056;-47
2022/12/29 09:28:39;;;;;;;5.22;0.70;;;14.00;55.70;;;;;;5015659;28;20056;-51
2022/12/29 09:31:06;;;;;;;3.97;0.80;;;14.00;55.70;;;;;;5003117;28;20501;-45
2022/12/29 09:33:35;;;;;;;4.72;0.70;;;14.00;55.70;;;;;;5003335;28;20124;-47
2022/12/29 09:36:03;;;;;;;10.52;0.80;;;14.00;55.60;;;;;;5001684;28;20057;-46
2022/12/29 09:38:31;;;;;;;5.97;0.90;;;14.00;55.60;;;;;;5002853;28;20053;-51
2022/12/29 09:41:02;;;;;;;3.00;0.90;;;14.00;55.60;;;;;;5005161;28;20064;-44
2022/12/29 09:43:46;;;;;;;3.83;0.70;;;14.00;55.40;;;;;;5007973;28;20053;-47
2022/12/29 09:46:24;;;;;;;2.33;0.63;;;14.00;55.40;;;;;;5005404;28;20433;-46
2022/12/29 09:49:00;;;;;;;1.83;0.65;;;14.00;55.30;;;;;;5000394;28;20057;-47
2022/12/29 09:51:28;;;;;;;3.05;0.85;;;14.00;55.20;;;;;;5004737;28;20061;-44
2022/12/29 09:53:59;;;;;;;3.45;0.90;;;14.00;55.20;;;;;;5003377;28;20045;-47
2022/12/29 09:56:27;;;;;;;3.28;1.08;;;14.00;55.00;;;;;;5005089;28;22027;-44
2022/12/29 09:59:00;;;;;;;2.22;0.60;;;14.00;54.80;;;;;;5006070;28;20053;-47
2022/12/29 10:01:33;;;;;;;5.13;1.02;;;14.00;54.70;;;;;;5002968;28;20057;-43
2022/12/29 10:04:04;;;;;;;4.05;0.70;;;14.00;54.60;;;;;;5002336;28;20508;-45
2022/12/29 10:06:38;;;;;;;8.30;0.98;;;14.00;54.60;;;;;;5011123;28;20448;-47
2022/12/29 10:09:14;;;;;;;4.05;0.80;;;14.00;54.60;;;;;;5005543;28;20477;-44
2022/12/29 10:11:59;;;;;;;3.25;0.85;;;13.90;54.60;;;;;;5009579;28;20049;-46
2022/12/29 10:14:52;;;;;;;1.38;0.47;;;13.90;54.60;;;;;;5000384;28;20509;-45
2022/12/29 10:17:34;;;;;;;3.58;0.98;;;14.00;54.60;;;;;;5003152;28;20057;-44
2022/12/29 10:47:38;;;;;;;5.88;1.02;;;14.00;54.30;;;;;;5022582;28;20029;-42
2022/12/29 10:50:07;;;;;;;3.85;0.65;;;14.00;54.30;;;;;;5018900;28;20049;-46
2022/12/29 10:52:35;;;;;;;3.28;0.80;;;14.00;54.20;;;;;;5020526;28;20051;-49
2022/12/29 10:55:08;;;;;;;7.85;1.55;;;14.00;54.10;;;;;;5002917;28;20064;-44
2022/12/29 10:57:39;;;;;;;4.50;0.80;;;14.00;54.10;;;;;;5002667;28;20541;-43
2022/12/29 11:00:14;;;;;;;6.78;0.93;;;14.00;54.10;;;;;;5004797;28;20530;-48
2022/12/29 11:03:03;;;;;;;3.28;0.77;;;14.00;54.00;;;;;;5007512;28;20094;-44
2022/12/29 11:05:36;;;;;;;4.53;1.10;;;14.00;53.90;;;;;;5009197;28;20054;-47
2022/12/29 11:08:09;;;;;;;4.50;0.85;;;14.00;53.90;;;;;;5010547;28;20045;-46
2022/12/29 11:10:39;;;;;;;4.15;1.10;;;14.00;54.00;;;;;;5006282;28;20062;-47
2022/12/29 11:13:13;;;;;;;7.35;1.10;;;14.00;53.70;;;;;;5008804;28;20406;-43
2022/12/29 11:15:42;;;;;;;5.30;1.15;;;14.00;53.50;;;;;;5005963;28;20064;-49
2022/12/29 11:18:23;;;;;;;4.63;1.13;;;14.00;53.60;;;;;;5005885;28;20049;-49
2022/12/29 11:20:52;;;;;;;6.68;1.02;;;14.00;53.30;;;;;;5008496;28;20057;-50
2022/12/29 11:23:29;;;;;;;5.97;1.05;;;14.00;53.40;;;;;;5007131;28;20084;-52
2022/12/29 11:26:17;;;;;;;3.45;1.17;;;13.90;53.40;;;;;;5008193;28;20057;-48
2022/12/29 11:28:46;;;;;;;6.57;1.58;;;13.90;53.30;;;;;;5008006;28;20049;-48
2022/12/29 11:31:18;;;;;;;6.63;1.63;;;13.90;53.40;;;;;;5005869;28;20489;-43
2022/12/29 11:33:46;;;;;;;4.78;1.58;;;13.90;53.30;;;;;;5008048;28;20050;-48
2022/12/29 11:36:18;;;;;;;5.70;2.10;;;13.90;53.30;;;;;;5009996;28;20058;-41
2022/12/29 11:38:49;;;;;;;5.40;1.88;;;13.90;53.30;;;;;;5003160;28;20056;-46
2022/12/29 11:41:23;;;;;;;5.07;1.20;;;13.90;53.30;;;;;;5008325;28;20548;-50
2022/12/29 11:43:52;;;;;;;5.88;1.80;;;13.90;53.10;;;;;;5006063;28;20579;-46
2022/12/29 11:46:23;;;;;;;7.50;2.20;;;13.90;53.10;;;;;;5004709;28;20471;-46
2022/12/29 11:48:52;;;;;;;7.00;1.90;;;14.00;53.00;;;;;;5012715;28;20053;-48
2022/12/29 11:51:24;;;;;;;7.45;1.67;;;14.00;53.10;;;;;;5002725;28;20056;-50
2022/12/29 11:53:55;;;;;;;6.90;2.28;;;14.00;53.10;;;;;;5006831;28;20053;-47
2022/12/29 11:56:35;;;;;;;8.55;2.72;;;14.00;53.00;;;;;;5006274;28;20049;-49
2022/12/29 11:59:37;;;;;;;6.65;2.22;;;14.00;52.90;;;;;;5003244;28;20057;-45
2022/12/29 12:02:21;;;;;;;8.00;1.75;;;14.00;52.90;;;;;;5007289;28;20054;-46
2022/12/29 12:04:54;;;;;;;6.95;1.70;;;14.00;52.80;;;;;;5007842;28;20053;-45
2022/12/29 12:07:30;;;;;;;4.10;1.10;;;14.00;52.70;;;;;;5005679;28;20050;-48
2022/12/29 12:10:01;;;;;;;4.10;1.27;;;14.00;52.50;;;;;;5003568;28;20053;-44
2022/12/29 12:12:34;;;;;;;13.38;3.35;;;14.00;52.60;;;;;;5006064;28;20080;-45
2022/12/29 12:15:03;;;;;;;6.03;1.52;;;14.00;52.60;;;;;;5006205;28;20064;-48
2022/12/29 12:17:38;;;;;;;10.30;3.30;;;14.00;52.50;;;;;;5012290;28;20529;-46
2022/12/29 12:20:18;;;;;;;7.93;1.60;;;14.00;52.60;;;;;;5005443;28;20049;-43
2022/12/29 12:22:52;;;;;;;5.82;1.50;;;14.00;52.20;;;;;;5004220;28;20056;-46
2022/12/29 12:25:22;;;;;;;8.90;2.00;;;14.00;52.10;;;;;;5006680;28;20417;-46
2022/12/29 12:28:05;;;;;;;11.00;2.08;;;14.00;52.40;;;;;;5021817;28;20060;-46
2022/12/29 12:30:43;;;;;;;8.75;2.00;;;14.00;52.30;;;;;;5019891;28;20061;-45
2022/12/29 12:33:23;;;;;;;5.40;1.83;;;14.00;52.20;;;;;;5021053;28;20493;-46
2022/12/29 12:36:26;;;;;;;8.38;2.15;;;14.00;52.20;;;;;;5021875;28;20413;-46
2022/12/29 12:39:04;;;;;;;6.78;1.92;;;14.00;52.30;;;;;;5019261;28;20056;-49
2022/12/29 12:41:52;;;;;;;6.97;2.00;;;14.00;52.30;;;;;;5022670;28;20049;-49
2022/12/29 12:44:29;;;;;;;8.23;1.45;;;14.00;52.10;;;;;;5023077;28;20441;-45
2022/12/29 12:47:27;;;;;;;4.68;1.30;;;14.00;52.10;;;;;;5022371;28;20049;-51
2022/12/29 12:50:27;;;;;;;6.38;1.50;;;14.00;52.10;;;;;;5024515;28;20053;-44
2022/12/29 12:53:32;;;;;;;6.40;1.40;;;14.00;52.10;;;;;;5024486;28;20053;-47
2022/12/29 13:00:01;;;;;;;5.57;1.13;;;14.00;52.00;;;;;;5046751;23;20045;-45
2022/12/29 13:02:44;;;;;;;10.23;1.60;;;14.00;52.10;;;;;;5043441;28;20053;-45
2022/12/29 13:05:24;;;;;;;13.65;1.85;;;14.00;52.00;;;;;;5043326;28;20393;-45
2022/12/29 13:08:02;;;;;;;5.18;1.05;;;14.00;52.10;;;;;;5043799;28;20485;-42
2022/12/29 13:10:42;;;;;;;7.72;1.70;;;14.00;52.20;;;;;;5037549;28;20060;-44
2022/12/29 13:13:47;;;;;;;8.13;1.23;;;14.00;51.90;;;;;;5043381;28;20049;-44
2022/12/29 13:16:23;;;;;;;7.20;1.58;;;14.00;52.00;;;;;;5025052;28;20049;-48
2022/12/29 13:18:58;;;;;;;7.15;1.33;;;14.00;52.20;;;;;;5042470;28;20525;-45
2022/12/29 13:21:37;;;;;;;5.55;1.15;;;14.00;52.30;;;;;;5042696;28;20064;-44
2022/12/29 13:24:16;;;;;;;8.38;1.35;;;14.00;52.00;;;;;;5036783;28;20056;-48
2022/12/29 13:26:50;;;;;;;8.35;1.50;;;14.00;52.10;;;;;;5043094;28;20053;-45
2022/12/29 13:29:24;;;;;;;8.40;1.38;;;14.00;52.00;;;;;;5043929;28;20481;-45
2022/12/29 13:32:01;;;;;;;4.57;1.25;;;14.00;51.90;;;;;;5039703;28;20057;-44
2022/12/29 13:34:38;;;;;;;5.13;1.10;;;14.00;51.90;;;;;;5038806;28;20053;-45
2022/12/29 13:37:12;;;;;;;8.50;1.23;;;14.00;51.90;;;;;;5041108;28;20060;-45
2022/12/29 13:39:43;;;;;;;8.60;0.93;;;14.00;51.70;;;;;;5031457;28;20396;-43
2022/12/29 13:42:13;;;;;;;6.03;1.15;;;14.00;51.80;;;;;;5041679;28;20422;-44
2022/12/29 13:44:46;;;;;;;7.15;1.35;;;14.00;51.90;;;;;;5042502;28;20061;-44
2022/12/29 13:47:21;;;;;;;7.72;1.35;;;14.00;51.90;;;;;;5040622;28;20068;-47
2022/12/29 13:49:49;;;;;;;7.78;1.23;;;14.00;51.60;;;;;;5041928;28;20052;-46
2022/12/29 13:52:31;;;;;;;5.82;1.30;;;13.90;51.70;;;;;;5041752;28;20063;-42
2022/12/29 13:55:08;;;;;;;6.28;1.23;;;13.90;51.70;;;;;;5039776;28;20069;-51
2022/12/29 13:57:46;;;;;;;6.85;1.08;;;14.00;51.50;;;;;;5040024;28;20060;-46
2022/12/29 14:00:17;;;;;;;4.38;1.02;;;14.00;51.70;;;;;;5041484;28;20052;-47
2022/12/29 14:03:05;;;;;;;7.25;1.17;;;14.00;51.60;;;;;;5041788;28;20071;-46
2022/12/29 14:05:33;;;;;;;9.27;1.30;;;13.90;51.50;;;;;;5038529;28;20049;-44
2022/12/29 14:08:02;;;;;;;7.68;1.30;;;13.90;51.60;;;;;;5041102;28;20083;-51
2022/12/29 14:10:36;;;;;;;6.43;1.05;;;14.00;51.70;;;;;;5040676;28;20052;-50
2022/12/29 14:13:10;;;;;;;5.23;0.90;;;14.00;51.90;;;;;;5042198;28;20523;-51
2022/12/29 14:15:41;;;;;;;7.90;1.17;;;13.90;51.70;;;;;;5040157;28;20498;-49
2022/12/29 14:18:15;;;;;;;9.82;1.65;;;13.90;51.70;;;;;;5040001;28;20789;-48
2022/12/29 14:20:50;;;;;;;;;;;13.90;51.70;;;;;;5042157;28;20480;-48